Terminal Aerodrome Forecast
Issued by NWS Knoxville/Tri Cities, TN

Home | Current Version | Previous Version | Text Only | Print | Product List | Glossary On
Versions: 1 2 3 4 5 6 7 8 9 10 11 12 13 14 15 16 17 18 19 20 21 22 23 24 25 26 27 28 29 30 31 32 33 34 35
000
FTUS44 KMRX 301724
TAFCHA
TAF
KCHA 301724Z 3018/0118 20010KT P6SM VCTS SCT050CB BKN100
      TEMPO 3018/3022 VRB16G28KT 4SM -TSRA BR SCT025CB BKN040
     FM010300 VRB04KT P6SM SCT040 BKN090
     FM010800 00000KT P6SM SCT080 BKN200
     FM011400 21006KT P6SM SCT050 BKN150=

USA.gov is the U.S. government's official web portal to all federal, state and local government web resources and services.